Main page
METAR-TAF:

METAR-TAF

Airports :

Midland International Air and Space Port

Midland, Texas, United States

latitude: 31-56-52N, longitude: 102-12-31W, elevation: 2870 ft

Current weather observation

The report was made 15 minutes ago, at 05:53 UTC
Wind 12 mph from the South
Temperature 72°F
Humidity 65%
Pressure 29.93 in. Hg
Visibility: 10 miles
Clear sky

METAR: KMAF 250553Z AUTO 19010KT 10SM CLR 22/15 A2993 RMK AO2 SLP088 T02220150 10300 20206 403110139 50002

Time: 01:08 (06:08 UTC)

Forecast

The report was made 19 minutes ago, at 05:49 UTC
Forecast valid from 25 at 06 UTC to 26 at 06 UTC
Wind 12 mph from the South/Southeast
Visibility: 6 miles
Clear sky
Temporary
from 25 at 10 UTC to 25 at 13 UTC
Broken clouds at a height of 1000 ft
From 26 at 0300 UTC
Wind 20 mph from the Northeast
Visibility: 6 miles
Broken clouds at a height of 5000 ft

TAF: KMAF 250549Z 2506/2606 16010KT P6SM SKC TEMPO 2510/2513 BKN010 FM260300 05017KT P6SM BKN050

Weather observations and forecasts of more than 4000 airports (METAR and TAF reports).

The available stations are represented by yellow and red dots on the map.

Hover mouse over dot to see the name of the station.

Then click to see weather observations and forecasts.

To change the map : click on the green buttons with a black cross to zoom in, on the green button with a dash to zoom out, or on the green arrows for adjacent maps.


METAR-TAF: